sensor_id;sensor_type;location;lat;lon;timestamp;pressure;altitude;pressure_sealevel;temperature;humidity
51289;BME280;37372;52.294;5.152;2023-05-10T00:01:58;100834.50;;;11.62;100.00
51289;BME280;37372;52.294;5.152;2023-05-10T00:04:23;100833.66;;;11.62;100.00
51289;BME280;37372;52.294;5.152;2023-05-10T00:06:52;100826.25;;;11.62;100.00
51289;BME280;37372;52.294;5.152;2023-05-10T00:09:19;100827.09;;;11.63;100.00
51289;BME280;37372;52.294;5.152;2023-05-10T00:11:49;100826.50;;;11.61;100.00
51289;BME280;37372;52.294;5.152;2023-05-10T00:14:14;100832.81;;;11.61;100.00
51289;BME280;37372;52.294;5.152;2023-05-10T00:16:40;100825.88;;;11.59;100.00
51289;BME280;37372;52.294;5.152;2023-05-10T00:19:16;100819.53;;;11.58;100.00
51289;BME280;37372;52.294;5.152;2023-05-10T00:21:41;100818.13;;;11.56;100.00
51289;BME280;37372;52.294;5.152;2023-05-10T00:24:07;100816.91;;;11.52;100.00
51289;BME280;37372;52.294;5.152;2023-05-10T00:26:33;100824.56;;;11.50;100.00
51289;BME280;37372;52.294;5.152;2023-05-10T00:29:00;100824.81;;;11.48;100.00
51289;BME280;37372;52.294;5.152;2023-05-10T00:31:26;100818.69;;;11.46;100.00
51289;BME280;37372;52.294;5.152;2023-05-10T00:33:52;100820.59;;;11.46;100.00
51289;BME280;37372;52.294;5.152;2023-05-10T00:36:17;100825.75;;;11.42;100.00
51289;BME280;37372;52.294;5.152;2023-05-10T00:38:43;100825.75;;;11.42;100.00
51289;BME280;37372;52.294;5.152;2023-05-10T00:41:08;100827.81;;;11.47;100.00
51289;BME280;37372;52.294;5.152;2023-05-10T00:43:34;100825.41;;;11.50;100.00
51289;BME280;37372;52.294;5.152;2023-05-10T00:46:00;100822.19;;;11.53;100.00
51289;BME280;37372;52.294;5.152;2023-05-10T00:48:26;100824.69;;;11.55;100.00
51289;BME280;37372;52.294;5.152;2023-05-10T00:50:52;100825.03;;;11.58;100.00
51289;BME280;37372;52.294;5.152;2023-05-10T00:53:17;100832.22;;;11.59;100.00
51289;BME280;37372;52.294;5.152;2023-05-10T00:55:43;100834.50;;;11.62;100.00
51289;BME280;37372;52.294;5.152;2023-05-10T00:58:09;100832.34;;;11.64;100.00
51289;BME280;37372;52.294;5.152;2023-05-10T01:00:35;100832.81;;;11.61;100.00
51289;BME280;37372;52.294;5.152;2023-05-10T01:03:05;100831.75;;;11.62;100.00
51289;BME280;37372;52.294;5.152;2023-05-10T01:05:31;100832.94;;;11.66;100.00
51289;BME280;37372;52.294;5.152;2023-05-10T01:07:56;100843.19;;;11.71;100.00
51289;BME280;37372;52.294;5.152;2023-05-10T01:10:22;100841.06;;;11.73;100.00
51289;BME280;37372;52.294;5.152;2023-05-10T01:12:48;100839.75;;;11.76;100.00
51289;BME280;37372;52.294;5.152;2023-05-10T01:15:15;100841.16;;;11.78;100.00
51289;BME280;37372;52.294;5.152;2023-05-10T01:17:44;100833.03;;;11.72;100.00
51289;BME280;37372;52.294;5.152;2023-05-10T01:20:12;100836.88;;;11.71;100.00
51289;BME280;37372;52.294;5.152;2023-05-10T01:34:20;100835.31;;;11.63;100.00
51289;BME280;37372;52.294;5.152;2023-05-10T01:37:07;100831.38;;;11.71;100.00
51289;BME280;37372;52.294;5.152;2023-05-10T01:40:04;100834.13;;;11.71;100.00
51289;BME280;37372;52.294;5.152;2023-05-10T01:42:39;100833.78;;;11.67;100.00
51289;BME280;37372;52.294;5.152;2023-05-10T01:45:16;100842.16;;;11.72;100.00
51289;BME280;37372;52.294;5.152;2023-05-10T01:47:46;100838.09;;;11.75;100.00
51289;BME280;37372;52.294;5.152;2023-05-10T01:50:18;100846.06;;;11.76;100.00
51289;BME280;37372;52.294;5.152;2023-05-10T01:52:53;100844.41;;;11.75;100.00
51289;BME280;37372;52.294;5.152;2023-05-10T01:55:25;100831.50;;;11.76;100.00
51289;BME280;37372;52.294;5.152;2023-05-10T01:57:58;100842.75;;;11.74;100.00
51289;BME280;37372;52.294;5.152;2023-05-10T02:00:26;100841.06;;;11.73;100.00
51289;BME280;37372;52.294;5.152;2023-05-10T02:02:52;100841.41;;;11.77;100.00
51289;BME280;37372;52.294;5.152;2023-05-10T02:05:22;100848.81;;;11.76;100.00
51289;BME280;37372;52.294;5.152;2023-05-10T02:07:50;100849.41;;;11.78;100.00
51289;BME280;37372;52.294;5.152;2023-05-10T02:10:17;100846.91;;;11.77;100.00
51289;BME280;37372;52.294;5.152;2023-05-10T02:12:47;100850.75;;;11.76;100.00
51289;BME280;37372;52.294;5.152;2023-05-10T02:15:17;100853.88;;;11.79;100.00
51289;BME280;37372;52.294;5.152;2023-05-10T02:17:46;100847.88;;;11.71;100.00
51289;BME280;37372;52.294;5.152;2023-05-10T02:20:17;100849.06;;;11.75;100.00
51289;BME280;37372;52.294;5.152;2023-05-10T02:22:49;100848.25;;;11.74;100.00
51289;BME280;37372;52.294;5.152;2023-05-10T02:25:19;100847.41;;;11.74;100.00
51289;BME280;37372;52.294;5.152;2023-05-10T02:27:46;100855.53;;;11.69;100.00
51289;BME280;37372;52.294;5.152;2023-05-10T02:30:19;100863.63;;;11.63;99.73
51289;BME280;37372;52.294;5.152;2023-05-10T02:32:46;100858.13;;;11.63;100.00
51289;BME280;37372;52.294;5.152;2023-05-10T02:35:14;100871.53;;;11.60;100.00
51289;BME280;37372;52.294;5.152;2023-05-10T02:37:41;100866.25;;;11.58;99.88
51289;BME280;37372;52.294;5.152;2023-05-10T02:40:16;100865.19;;;11.59;100.00
51289;BME280;37372;52.294;5.152;2023-05-10T02:42:47;100867.22;;;11.64;99.63
51289;BME280;37372;52.294;5.152;2023-05-10T02:45:19;100868.06;;;11.53;99.15
51289;BME280;37372;52.294;5.152;2023-05-10T02:47:45;100868.16;;;11.58;100.00
51289;BME280;37372;52.294;5.152;2023-05-10T02:50:18;100871.19;;;11.68;99.19
51289;BME280;37372;52.294;5.152;2023-05-10T02:52:50;100871.41;;;11.55;99.14
51289;BME280;37372;52.294;5.152;2023-05-10T02:55:24;100873.44;;;11.59;99.33
51289;BME280;37372;52.294;5.152;2023-05-10T02:57:54;100867.31;;;11.57;99.00
51289;BME280;37372;52.294;5.152;2023-05-10T03:00:22;100875.69;;;11.51;99.73
51289;BME280;37372;52.294;5.152;2023-05-10T03:02:47;100880.72;;;11.54;99.24
51289;BME280;37372;52.294;5.152;2023-05-10T03:05:19;100882.38;;;11.43;99.40
51289;BME280;37372;52.294;5.152;2023-05-10T03:07:48;100873.53;;;11.41;99.60
51289;BME280;37372;52.294;5.152;2023-05-10T03:10:29;100877.56;;;11.38;99.38
51289;BME280;37372;52.294;5.152;2023-05-10T03:16:16;100870.69;;;11.48;99.80
51289;BME280;37372;52.294;5.152;2023-05-10T03:19:02;100872.22;;;11.44;99.68
51289;BME280;37372;52.294;5.152;2023-05-10T03:21:32;100874.22;;;11.36;99.61
51289;BME280;37372;52.294;5.152;2023-05-10T03:24:04;100882.44;;;11.25;100.00
51289;BME280;37372;52.294;5.152;2023-05-10T03:26:35;100876.94;;;11.25;100.00
51289;BME280;37372;52.294;5.152;2023-05-10T03:29:04;100886.16;;;11.30;100.00
51289;BME280;37372;52.294;5.152;2023-05-10T03:31:35;100880.09;;;11.40;99.69
51289;BME280;37372;52.294;5.152;2023-05-10T03:34:01;100885.44;;;11.35;99.49
51289;BME280;37372;52.294;5.152;2023-05-10T03:36:26;100888.66;;;11.32;99.83
51289;BME280;37372;52.294;5.152;2023-05-10T03:38:52;100882.09;;;11.33;99.86
51289;BME280;37372;52.294;5.152;2023-05-10T03:41:17;100885.31;;;11.30;99.94
51289;BME280;37372;52.294;5.152;2023-05-10T03:43:42;100890.31;;;11.33;99.95
51289;BME280;37372;52.294;5.152;2023-05-10T03:46:08;100885.91;;;11.32;99.86
51289;BME280;37372;52.294;5.152;2023-05-10T03:48:34;100890.31;;;11.33;100.00
51289;BME280;37372;52.294;5.152;2023-05-10T03:50:59;100892.34;;;11.26;99.49
51289;BME280;37372;52.294;5.152;2023-05-10T03:53:25;100892.47;;;11.31;100.00
51289;BME280;37372;52.294;5.152;2023-05-10T03:55:51;100896.41;;;11.23;100.00
51289;BME280;37372;52.294;5.152;2023-05-10T03:58:17;100895.56;;;11.23;100.00
51289;BME280;37372;52.294;5.152;2023-05-10T04:00:43;100896.25;;;11.18;100.00
51289;BME280;37372;52.294;5.152;2023-05-10T04:03:14;100907.75;;;11.27;100.00
51289;BME280;37372;52.294;5.152;2023-05-10T04:05:40;100902.78;;;11.35;100.00
51289;BME280;37372;52.294;5.152;2023-05-10T04:08:06;100903.84;;;11.34;100.00
51289;BME280;37372;52.294;5.152;2023-05-10T04:10:42;100901.09;;;11.34;100.00
51289;BME280;37372;52.294;5.152;2023-05-10T04:13:07;100905.88;;;11.39;100.00
51289;BME280;37372;52.294;5.152;2023-05-10T04:15:36;100899.78;;;11.37;99.55
51289;BME280;37372;52.294;5.152;2023-05-10T04:18:03;100904.19;;;11.38;99.85
51289;BME280;37372;52.294;5.152;2023-05-10T04:20:34;100903.13;;;11.27;100.00
51289;BME280;37372;52.294;5.152;2023-05-10T04:23:00;100899.75;;;11.25;100.00
51289;BME280;37372;52.294;5.152;2023-05-10T04:25:26;100896.53;;;11.28;100.00
51289;BME280;37372;52.294;5.152;2023-05-10T04:27:51;100900.13;;;11.29;100.00
51289;BME280;37372;52.294;5.152;2023-05-10T04:30:17;100901.69;;;11.36;100.00
51289;BME280;37372;52.294;5.152;2023-05-10T04:32:42;100907.03;;;11.31;99.98
51289;BME280;37372;52.294;5.152;2023-05-10T04:35:08;100907.66;;;11.33;100.00
51289;BME280;37372;52.294;5.152;2023-05-10T04:37:35;100913.06;;;11.40;100.00
51289;BME280;37372;52.294;5.152;2023-05-10T04:40:01;100911.34;;;11.39;100.00
51289;BME280;37372;52.294;5.152;2023-05-10T04:42:30;100915.56;;;11.42;100.00
51289;BME280;37372;52.294;5.152;2023-05-10T04:44:56;100917.09;;;11.37;99.77
51289;BME280;37372;52.294;5.152;2023-05-10T04:47:21;100913.91;;;11.41;99.91
51289;BME280;37372;52.294;5.152;2023-05-10T04:50:08;100914.84;;;11.34;99.15
51289;BME280;37372;52.294;5.152;2023-05-10T04:52:34;100919.44;;;11.22;98.99
51289;BME280;37372;52.294;5.152;2023-05-10T04:54:59;100919.44;;;11.22;99.39
51289;BME280;37372;52.294;5.152;2023-05-10T04:57:24;100916.94;;;11.32;98.65
51289;BME280;37372;52.294;5.152;2023-05-10T05:00:01;100921.34;;;11.22;98.40
51289;BME280;37372;52.294;5.152;2023-05-10T05:02:30;100926.28;;;11.31;98.82
51289;BME280;37372;52.294;5.152;2023-05-10T05:04:56;100932.25;;;11.28;98.17
51289;BME280;37372;52.294;5.152;2023-05-10T05:07:23;100933.22;;;11.34;97.86
51289;BME280;37372;52.294;5.152;2023-05-10T05:09:49;100926.59;;;11.23;97.43
51289;BME280;37372;52.294;5.152;2023-05-10T05:12:24;100926.75;;;11.28;97.81
51289;BME280;37372;52.294;5.152;2023-05-10T05:14:49;100938.22;;;11.37;97.97
51289;BME280;37372;52.294;5.152;2023-05-10T05:17:15;100938.94;;;11.32;97.07
51289;BME280;37372;52.294;5.152;2023-05-10T05:19:44;100939.16;;;11.31;97.13
51289;BME280;37372;52.294;5.152;2023-05-10T05:22:10;100947.78;;;11.34;97.97
51289;BME280;37372;52.294;5.152;2023-05-10T05:24:36;100951.97;;;11.37;97.27
51289;BME280;37372;52.294;5.152;2023-05-10T05:27:03;100949.38;;;11.42;97.04
51289;BME280;37372;52.294;5.152;2023-05-10T05:29:29;100960.69;;;11.46;95.60
51289;BME280;37372;52.294;5.152;2023-05-10T05:31:58;100964.63;;;11.38;96.31
51289;BME280;37372;52.294;5.152;2023-05-10T05:34:24;100960.44;;;11.35;96.38
51289;BME280;37372;52.294;5.152;2023-05-10T05:36:50;100965.94;;;11.35;96.74
51289;BME280;37372;52.294;5.152;2023-05-10T05:39:15;100967.72;;;11.30;96.83
51289;BME280;37372;52.294;5.152;2023-05-10T05:41:41;100972.72;;;11.33;97.60
51289;BME280;37372;52.294;5.152;2023-05-10T05:44:06;100975.16;;;11.41;97.07
51289;BME280;37372;52.294;5.152;2023-05-10T05:46:32;100980.66;;;11.41;97.46
51289;BME280;37372;52.294;5.152;2023-05-10T05:48:57;100981.63;;;11.47;96.98
51289;BME280;37372;52.294;5.152;2023-05-10T05:51:24;100982.00;;;11.50;96.77
51289;BME280;37372;52.294;5.152;2023-05-10T05:53:50;100984.63;;;11.57;96.92
51289;BME280;37372;52.294;5.152;2023-05-10T05:56:16;100981.06;;;11.56;96.66
51289;BME280;37372;52.294;5.152;2023-05-10T05:58:51;100978.78;;;11.53;96.86
51289;BME280;37372;52.294;5.152;2023-05-10T06:01:16;100976.63;;;11.55;96.50
51289;BME280;37372;52.294;5.152;2023-05-10T06:03:47;100992.19;;;11.61;96.76
51289;BME280;37372;52.294;5.152;2023-05-10T06:06:13;100990.38;;;11.55;95.48
51289;BME280;37372;52.294;5.152;2023-05-10T06:08:38;100989.19;;;11.63;96.05
51289;BME280;37372;52.294;5.152;2023-05-10T06:11:04;100992.91;;;11.69;95.77
51289;BME280;37372;52.294;5.152;2023-05-10T06:13:30;100986.09;;;11.71;95.21
51289;BME280;37372;52.294;5.152;2023-05-10T06:16:02;100988.41;;;11.74;95.89
51289;BME280;37372;52.294;5.152;2023-05-10T06:18:30;100990.03;;;11.63;96.26
51289;BME280;37372;52.294;5.152;2023-05-10T06:20:56;100987.28;;;11.63;96.24
51289;BME280;37372;52.294;5.152;2023-05-10T06:23:22;100992.75;;;11.52;95.35
51289;BME280;37372;52.294;5.152;2023-05-10T06:25:48;100989.59;;;11.66;95.56
51289;BME280;37372;52.294;5.152;2023-05-10T06:28:13;100994.84;;;11.68;95.43
51289;BME280;37372;52.294;5.152;2023-05-10T06:30:38;100993.34;;;11.84;95.23
51289;BME280;37372;52.294;5.152;2023-05-10T06:33:04;100988.34;;;12.04;95.48
51289;BME280;37372;52.294;5.152;2023-05-10T06:35:29;101000.69;;;12.13;95.18
51289;BME280;37372;52.294;5.152;2023-05-10T06:37:56;100995.91;;;12.20;94.07
51289;BME280;37372;52.294;5.152;2023-05-10T06:40:21;101006.69;;;12.22;93.79
51289;BME280;37372;52.294;5.152;2023-05-10T06:42:47;101004.88;;;12.28;94.06
51289;BME280;37372;52.294;5.152;2023-05-10T06:45:26;101008.72;;;12.27;93.58
51289;BME280;37372;52.294;5.152;2023-05-10T06:47:51;101002.63;;;12.25;93.33
51289;BME280;37372;52.294;5.152;2023-05-10T06:50:20;101003.47;;;12.25;93.59
51289;BME280;37372;52.294;5.152;2023-05-10T06:52:46;101002.03;;;12.11;93.79
51289;BME280;37372;52.294;5.152;2023-05-10T06:55:17;101007.00;;;12.02;92.41
51289;BME280;37372;52.294;5.152;2023-05-10T06:57:43;101000.31;;;12.10;92.21
51289;BME280;37372;52.294;5.152;2023-05-10T07:00:09;101002.84;;;12.11;92.85
51289;BME280;37372;52.294;5.152;2023-05-10T07:02:35;101017.66;;;12.10;93.49
51289;BME280;37372;52.294;5.152;2023-05-10T07:05:00;101016.59;;;12.11;93.70
51289;BME280;37372;52.294;5.152;2023-05-10T07:07:27;101020.31;;;12.05;94.56
51289;BME280;37372;52.294;5.152;2023-05-10T07:09:52;101016.00;;;12.09;93.92
51289;BME280;37372;52.294;5.152;2023-05-10T07:12:18;101019.69;;;12.03;94.60
51289;BME280;37372;52.294;5.152;2023-05-10T07:14:44;101025.06;;;12.10;95.06
51289;BME280;37372;52.294;5.152;2023-05-10T07:17:10;101027.72;;;12.05;94.38
51289;BME280;37372;52.294;5.152;2023-05-10T07:19:35;101027.59;;;12.11;95.14
51289;BME280;37372;52.294;5.152;2023-05-10T07:22:01;101029.72;;;12.09;94.57
51289;BME280;37372;52.294;5.152;2023-05-10T07:24:27;101032.28;;;12.11;93.11
51289;BME280;37372;52.294;5.152;2023-05-10T07:26:52;101030.56;;;12.10;93.54
51289;BME280;37372;52.294;5.152;2023-05-10T07:29:18;101035.09;;;12.04;92.98
51289;BME280;37372;52.294;5.152;2023-05-10T07:31:47;101038.47;;;12.06;93.49
51289;BME280;37372;52.294;5.152;2023-05-10T07:34:18;101037.03;;;12.15;94.36
51289;BME280;37372;52.294;5.152;2023-05-10T07:36:47;101042.00;;;12.37;92.67
51289;BME280;37372;52.294;5.152;2023-05-10T07:39:14;101044.50;;;12.50;92.15
51289;BME280;37372;52.294;5.152;2023-05-10T07:41:39;101051.69;;;12.63;92.15
51289;BME280;37372;52.294;5.152;2023-05-10T07:44:06;101043.31;;;12.69;91.72
51289;BME280;37372;52.294;5.152;2023-05-10T07:46:31;101044.72;;;12.84;91.25
51289;BME280;37372;52.294;5.152;2023-05-10T07:48:59;101045.91;;;12.99;91.10
51289;BME280;37372;52.294;5.152;2023-05-10T07:51:25;101053.56;;;13.21;89.52
51289;BME280;37372;52.294;5.152;2023-05-10T07:53:51;101052.41;;;12.82;87.84
51289;BME280;37372;52.294;5.152;2023-05-10T07:56:30;101053.00;;;12.84;88.73
51289;BME280;37372;52.294;5.152;2023-05-10T07:58:57;101058.25;;;12.85;88.30
51289;BME280;37372;52.294;5.152;2023-05-10T08:01:24;101057.00;;;13.16;88.41
51289;BME280;37372;52.294;5.152;2023-05-10T08:03:50;101051.25;;;13.18;86.96
51289;BME280;37372;52.294;5.152;2023-05-10T08:06:22;101059.63;;;13.46;87.71
51289;BME280;37372;52.294;5.152;2023-05-10T08:08:49;101062.38;;;13.46;87.21
51289;BME280;37372;52.294;5.152;2023-05-10T08:11:22;101056.25;;;13.44;86.56
51289;BME280;37372;52.294;5.152;2023-05-10T08:13:49;101057.16;;;13.21;85.86
51289;BME280;37372;52.294;5.152;2023-05-10T08:16:21;101068.59;;;13.42;84.92
51289;BME280;37372;52.294;5.152;2023-05-10T08:18:47;101078.56;;;13.19;85.71
51289;BME280;37372;52.294;5.152;2023-05-10T08:21:20;101074.03;;;13.25;85.43
51289;BME280;37372;52.294;5.152;2023-05-10T08:23:51;101079.28;;;13.26;86.06
51289;BME280;37372;52.294;5.152;2023-05-10T08:26:22;101078.69;;;13.36;85.96
51289;BME280;37372;52.294;5.152;2023-05-10T08:28:48;101086.19;;;13.52;86.95
51289;BME280;37372;52.294;5.152;2023-05-10T08:31:13;101090.50;;;13.48;83.11
51289;BME280;37372;52.294;5.152;2023-05-10T08:33:39;101088.56;;;13.61;84.30
51289;BME280;37372;52.294;5.152;2023-05-10T08:36:06;101093.13;;;13.55;84.58
51289;BME280;37372;52.294;5.152;2023-05-10T08:38:32;101099.84;;;13.59;83.52
51289;BME280;37372;52.294;5.152;2023-05-10T08:40:58;101093.22;;;13.89;83.32
51289;BME280;37372;52.294;5.152;2023-05-10T08:43:30;101093.59;;;14.09;80.31
51289;BME280;37372;52.294;5.152;2023-05-10T08:45:59;101099.75;;;14.45;80.66
51289;BME280;37372;52.294;5.152;2023-05-10T08:48:29;101100.13;;;14.82;80.85
51289;BME280;37372;52.294;5.152;2023-05-10T08:50:57;101109.19;;;14.99;80.43
51289;BME280;37372;52.294;5.152;2023-05-10T08:53:24;101109.09;;;15.11;79.04
51289;BME280;37372;52.294;5.152;2023-05-10T08:55:56;101110.81;;;15.34;77.37
51289;BME280;37372;52.294;5.152;2023-05-10T08:58:22;101114.91;;;15.31;77.65
51289;BME280;37372;52.294;5.152;2023-05-10T09:00:49;101112.94;;;15.27;76.59
51289;BME280;37372;52.294;5.152;2023-05-10T09:03:20;101107.88;;;15.02;76.90
51289;BME280;37372;52.294;5.152;2023-05-10T09:05:46;101111.22;;;15.26;79.44
51289;BME280;37372;52.294;5.152;2023-05-10T09:08:12;101107.75;;;15.52;76.42
51289;BME280;37372;52.294;5.152;2023-05-10T09:10:50;101108.88;;;15.56;76.34
51289;BME280;37372;52.294;5.152;2023-05-10T09:13:16;101113.50;;;15.51;75.91
51289;BME280;37372;52.294;5.152;2023-05-10T09:15:47;101110.16;;;15.49;75.46
51289;BME280;37372;52.294;5.152;2023-05-10T09:18:12;101112.44;;;15.74;75.30
51289;BME280;37372;52.294;5.152;2023-05-10T09:20:38;101115.66;;;16.14;74.48
51289;BME280;37372;52.294;5.152;2023-05-10T09:23:04;101117.94;;;15.95;75.12
51289;BME280;37372;52.294;5.152;2023-05-10T09:25:30;101123.03;;;15.82;74.96
51289;BME280;37372;52.294;5.152;2023-05-10T09:27:58;101120.91;;;15.89;75.28
51289;BME280;37372;52.294;5.152;2023-05-10T09:30:29;101134.34;;;16.02;74.77
51289;BME280;37372;52.294;5.152;2023-05-10T09:32:59;101134.97;;;16.09;73.82
51289;BME280;37372;52.294;5.152;2023-05-10T09:35:27;101132.94;;;16.00;74.52
51289;BME280;37372;52.294;5.152;2023-05-10T09:37:54;101134.88;;;16.26;74.49
51289;BME280;37372;52.294;5.152;2023-05-10T09:40:22;101130.69;;;16.50;71.23
51289;BME280;37372;52.294;5.152;2023-05-10T09:43:03;101139.00;;;16.50;72.85
51289;BME280;37372;52.294;5.152;2023-05-10T09:45:36;101139.66;;;16.63;69.38
51289;BME280;37372;52.294;5.152;2023-05-10T09:48:04;101143.53;;;16.67;70.75
51289;BME280;37372;52.294;5.152;2023-05-10T09:50:30;101144.38;;;16.67;70.89
51289;BME280;37372;52.294;5.152;2023-05-10T09:53:00;101141.03;;;16.33;71.74
51289;BME280;37372;52.294;5.152;2023-05-10T09:55:38;101144.47;;;16.45;70.86
51289;BME280;37372;52.294;5.152;2023-05-10T09:58:05;101146.63;;;16.38;72.57
51289;BME280;37372;52.294;5.152;2023-05-10T10:00:36;101142.97;;;16.06;73.52
51289;BME280;37372;52.294;5.152;2023-05-10T10:03:03;101148.19;;;16.29;72.86
51289;BME280;37372;52.294;5.152;2023-05-10T10:05:36;101146.84;;;16.32;71.14
51289;BME280;37372;52.294;5.152;2023-05-10T10:08:05;101147.41;;;16.66;71.23
51289;BME280;37372;52.294;5.152;2023-05-10T10:10:33;101145.66;;;16.82;69.89
51289;BME280;37372;52.294;5.152;2023-05-10T10:13:02;101155.50;;;16.40;72.15
51289;BME280;37372;52.294;5.152;2023-05-10T10:15:32;101150.41;;;16.59;70.96
51289;BME280;37372;52.294;5.152;2023-05-10T10:18:08;101159.72;;;16.48;71.74
51289;BME280;37372;52.294;5.152;2023-05-10T10:20:38;101160.47;;;16.38;71.68
51289;BME280;37372;52.294;5.152;2023-05-10T10:23:03;101163.03;;;17.09;71.12
51289;BME280;37372;52.294;5.152;2023-05-10T10:25:29;101163.91;;;17.62;69.08
51289;BME280;37372;52.294;5.152;2023-05-10T10:28:16;101165.31;;;17.70;67.52
51289;BME280;37372;52.294;5.152;2023-05-10T10:30:49;101170.72;;;17.92;67.50
51289;BME280;37372;52.294;5.152;2023-05-10T10:36:08;101162.81;;;17.16;66.47
51289;BME280;37372;52.294;5.152;2023-05-10T10:38:54;101166.44;;;16.84;69.19
51289;BME280;37372;52.294;5.152;2023-05-10T10:44:37;101166.06;;;16.43;70.35
51289;BME280;37372;52.294;5.152;2023-05-10T10:47:04;101160.75;;;16.42;69.65
51289;BME280;37372;52.294;5.152;2023-05-10T10:52:24;101163.81;;;16.40;70.64
51289;BME280;37372;52.294;5.152;2023-05-10T10:57:25;101169.34;;;16.40;70.10
51289;BME280;37372;52.294;5.152;2023-05-10T11:00:17;101173.00;;;16.19;69.08
51289;BME280;37372;52.294;5.152;2023-05-10T11:02:45;101172.94;;;16.14;71.25
51289;BME280;37372;52.294;5.152;2023-05-10T11:05:24;101175.47;;;15.93;71.81
51289;BME280;37372;52.294;5.152;2023-05-10T11:07:59;101176.78;;;15.47;73.53
51289;BME280;37372;52.294;5.152;2023-05-10T11:10:28;101178.09;;;15.23;74.15
51289;BME280;37372;52.294;5.152;2023-05-10T11:15:38;101189.50;;;15.09;74.70
51289;BME280;37372;52.294;5.152;2023-05-10T11:18:22;101189.59;;;15.14;75.55
51289;BME280;37372;52.294;5.152;2023-05-10T11:23:20;101184.88;;;15.70;72.72
51289;BME280;37372;52.294;5.152;2023-05-10T11:25:48;101190.09;;;16.11;72.75
51289;BME280;37372;52.294;5.152;2023-05-10T11:28:17;101180.25;;;16.52;71.45
51289;BME280;37372;52.294;5.152;2023-05-10T11:30:43;101181.22;;;16.68;70.41
51289;BME280;37372;52.294;5.152;2023-05-10T11:33:15;101186.38;;;16.81;68.08
51289;BME280;37372;52.294;5.152;2023-05-10T11:35:42;101192.28;;;16.36;70.41
51289;BME280;37372;52.294;5.152;2023-05-10T11:38:16;101197.31;;;16.39;70.22
51289;BME280;37372;52.294;5.152;2023-05-10T11:40:43;101201.72;;;16.67;69.24
51289;BME280;37372;52.294;5.152;2023-05-10T11:43:12;101191.06;;;16.53;71.11
51289;BME280;37372;52.294;5.152;2023-05-10T11:45:37;101187.25;;;16.60;70.37
51289;BME280;37372;52.294;5.152;2023-05-10T11:48:03;101201.47;;;16.41;72.22
51289;BME280;37372;52.294;5.152;2023-05-10T11:50:29;101196.59;;;16.53;68.35
51289;BME280;37372;52.294;5.152;2023-05-10T11:52:56;101200.00;;;16.07;71.33
51289;BME280;37372;52.294;5.152;2023-05-10T11:55:22;101203.66;;;16.12;70.75
51289;BME280;37372;52.294;5.152;2023-05-10T11:57:52;101199.22;;;15.89;71.79
51289;BME280;37372;52.294;5.152;2023-05-10T12:00:17;101201.84;;;16.01;71.55
51289;BME280;37372;52.294;5.152;2023-05-10T12:02:42;101207.41;;;16.50;68.70
51289;BME280;37372;52.294;5.152;2023-05-10T12:05:08;101220.47;;;16.82;69.95
51289;BME280;37372;52.294;5.152;2023-05-10T12:07:35;101212.50;;;16.90;69.65
51289;BME280;37372;52.294;5.152;2023-05-10T12:10:09;101214.59;;;17.10;69.12
51289;BME280;37372;52.294;5.152;2023-05-10T12:12:46;101210.06;;;16.94;69.93
51289;BME280;37372;52.294;5.152;2023-05-10T12:15:20;101216.94;;;16.64;69.02
51289;BME280;37372;52.294;5.152;2023-05-10T12:17:46;101212.38;;;16.26;72.99
51289;BME280;37372;52.294;5.152;2023-05-10T12:20:22;101215.50;;;16.08;71.85
51289;BME280;37372;52.294;5.152;2023-05-10T12:22:55;101220.66;;;15.99;73.40
51289;BME280;37372;52.294;5.152;2023-05-10T12:25:23;101221.41;;;15.73;75.19
51289;BME280;37372;52.294;5.152;2023-05-10T12:27:54;101213.38;;;15.54;74.77
51289;BME280;37372;52.294;5.152;2023-05-10T12:30:25;101211.56;;;15.82;74.21
51289;BME280;37372;52.294;5.152;2023-05-10T12:33:17;101216.19;;;16.20;74.55
51289;BME280;37372;52.294;5.152;2023-05-10T12:35:53;101216.25;;;16.52;73.11
51289;BME280;37372;52.294;5.152;2023-05-10T12:38:29;101214.59;;;16.78;71.79
51289;BME280;37372;52.294;5.152;2023-05-10T12:40:59;101214.19;;;17.28;69.16
51289;BME280;37372;52.294;5.152;2023-05-10T12:43:26;101215.47;;;17.53;68.18
51289;BME280;37372;52.294;5.152;2023-05-10T12:45:51;101218.13;;;17.80;66.86
51289;BME280;37372;52.294;5.152;2023-05-10T12:48:17;101217.13;;;18.01;67.03
51289;BME280;37372;52.294;5.152;2023-05-10T12:50:42;101215.72;;;17.51;68.34
51289;BME280;37372;52.294;5.152;2023-05-10T12:53:07;101213.81;;;17.52;67.86
51289;BME280;37372;52.294;5.152;2023-05-10T12:55:33;101219.28;;;17.04;69.31
51289;BME280;37372;52.294;5.152;2023-05-10T12:57:59;101215.38;;;16.46;71.56
51289;BME280;37372;52.294;5.152;2023-05-10T13:00:35;101216.00;;;16.27;74.15
51289;BME280;37372;52.294;5.152;2023-05-10T13:03:06;101227.25;;;16.20;73.13
51289;BME280;37372;52.294;5.152;2023-05-10T13:05:45;101222.53;;;15.93;72.88
51289;BME280;37372;52.294;5.152;2023-05-10T13:08:11;101233.44;;;15.83;71.40
51289;BME280;37372;52.294;5.152;2023-05-10T13:10:42;101232.97;;;15.69;74.94
51289;BME280;37372;52.294;5.152;2023-05-10T13:13:07;101245.47;;;15.38;74.54
51289;BME280;37372;52.294;5.152;2023-05-10T13:15:33;101239.66;;;15.18;74.22
51289;BME280;37372;52.294;5.152;2023-05-10T13:18:00;101242.66;;;15.33;75.72
51289;BME280;37372;52.294;5.152;2023-05-10T13:20:25;101242.16;;;15.36;76.18
51289;BME280;37372;52.294;5.152;2023-05-10T13:22:52;101247.91;;;15.52;74.48
51289;BME280;37372;52.294;5.152;2023-05-10T13:25:18;101244.50;;;15.83;75.45
51289;BME280;37372;52.294;5.152;2023-05-10T13:27:44;101241.81;;;15.88;74.30